Time;durP1;ratioP1;P1;durP2;ratioP2;P2;SDS_P1;SDS_P2;PMS_P1;PMS_P2;Temp;Humidity;BMP_temperature;BMP_pressure;BME280_temperature;BME280_humidity;BME280_pressure;Samples;Min_cycle;Max_cycle;Signal;HPM_P1;HPM_P2
2022/12/18 00:02:12;;;;;;;4.93;3.12;;;7.60;88.00;;;;;;10946434;32;20034;-75
2022/12/18 00:08:16;;;;;;;4.95;3.28;;;7.60;87.90;;;;;;10946226;32;20015;-75
2022/12/18 00:14:18;;;;;;;5.10;3.03;;;7.60;87.80;;;;;;10932616;32;20006;-75
2022/12/18 00:20:25;;;;;;;5.60;3.37;;;7.50;87.70;;;;;;10937167;27;20071;31
2022/12/18 00:26:33;;;;;;;5.65;3.65;;;7.50;87.90;;;;;;10429223;32;12038720;-75
2022/12/18 00:32:36;;;;;;;3.50;2.10;;;7.50;87.80;;;;;;10792911;33;20044;-75
2022/12/18 00:38:39;;;;;;;4.12;2.22;;;7.50;87.80;;;;;;10793028;33;20031;-75
2022/12/18 00:44:41;;;;;;;6.97;3.47;;;7.50;87.80;;;;;;10788222;33;20029;-75
2022/12/18 00:50:43;;;;;;;5.10;3.42;;;7.50;88.10;;;;;;10846395;32;20050;-76
2022/12/18 00:56:49;;;;;;;3.97;2.65;;;7.40;88.20;;;;;;10869419;32;20042;-75
2022/12/18 01:02:51;;;;;;;4.28;3.30;;;7.50;88.10;;;;;;10869269;32;20058;-75
2022/12/18 01:08:53;;;;;;;5.80;3.40;;;7.40;88.10;;;;;;10868882;32;20023;-75
2022/12/18 01:14:55;;;;;;;6.25;3.97;;;7.40;88.10;;;;;;10856137;32;20027;-76
2022/12/18 01:20:57;;;;;;;6.65;4.03;;;7.30;88.00;;;;;;10855413;32;20382;-75
2022/12/18 01:26:59;;;;;;;6.87;4.35;;;7.30;88.00;;;;;;10868274;32;20053;-75
2022/12/18 01:33:01;;;;;;;6.72;3.67;;;7.30;88.00;;;;;;10868228;32;20020;-75
2022/12/18 01:39:13;;;;;;;6.37;3.20;;;7.30;87.90;;;;;;10854795;32;20023;-75
2022/12/18 01:45:31;;;;;;;5.00;3.42;;;7.20;87.80;;;;;;10867830;32;20427;-75
2022/12/18 01:51:33;;;;;;;6.22;3.62;;;7.10;88.10;;;;;;10853966;32;20065;-76
2022/12/18 01:57:36;;;;;;;6.93;5.00;;;7.10;88.00;;;;;;10867139;32;20020;-75
2022/12/18 02:03:42;;;;;;;5.28;4.00;;;7.00;87.90;;;;;;10867237;32;20394;-75
2022/12/18 02:09:56;;;;;;;6.50;4.68;;;6.90;87.90;;;;;;10864288;32;20058;-76
2022/12/18 02:16:21;;;;;;;8.57;4.85;;;6.70;87.80;;;;;;10867003;32;20027;-75
2022/12/18 02:22:28;;;;;;;4.72;3.10;;;6.70;88.00;;;;;;10866771;32;20020;-75
2022/12/18 02:28:35;;;;;;;6.28;3.62;;;6.70;87.90;;;;;;10866658;32;20059;-75
2022/12/18 02:34:39;;;;;;;6.53;4.18;;;6.70;88.00;;;;;;10866534;32;20046;-75
2022/12/18 02:40:44;;;;;;;5.97;3.03;;;6.70;88.10;;;;;;10866507;32;20042;-75
2022/12/18 02:46:51;;;;;;;4.60;3.03;;;6.80;88.00;;;;;;10852981;32;20062;-75
2022/12/18 02:53:13;;;;;;;3.97;2.80;;;6.70;88.00;;;;;;10866219;32;20047;-74
2022/12/18 02:59:22;;;;;;;4.72;2.67;;;6.80;87.70;;;;;;10866144;32;20020;-74
2022/12/18 03:05:39;;;;;;;4.80;2.90;;;6.80;87.40;;;;;;10852972;32;20046;-74
2022/12/18 03:18:30;;;;;;;4.87;2.40;;;6.70;87.20;;;;;;10859182;32;20086;-74
2022/12/18 03:24:33;;;;;;;4.57;2.70;;;6.50;87.40;;;;;;10873072;32;20197;-74
2022/12/18 03:30:41;;;;;;;4.05;3.10;;;6.60;87.40;;;;;;10858791;32;20103;-74
2022/12/18 03:36:43;;;;;;;4.20;2.40;;;6.60;87.30;;;;;;10872469;32;20428;-74
2022/12/18 03:42:56;;;;;;;4.15;2.50;;;6.50;87.30;;;;;;10868206;32;20028;-74
2022/12/18 03:49:11;;;;;;;5.10;2.60;;;6.40;87.20;;;;;;10858781;32;20394;-74
2022/12/18 03:55:13;;;;;;;3.20;2.37;;;6.40;87.30;;;;;;10871795;32;20338;-74
2022/12/18 04:01:17;;;;;;;2.95;1.95;;;6.30;87.20;;;;;;10871492;32;20322;-74
2022/12/18 04:07:21;;;;;;;4.65;2.33;;;6.30;87.20;;;;;;10871162;32;20054;-74
2022/12/18 04:13:34;;;;;;;3.65;2.15;;;6.20;87.20;;;;;;10871078;32;20020;-74
2022/12/18 04:19:36;;;;;;;3.72;2.62;;;6.20;87.20;;;;;;10870483;32;20024;-74
2022/12/18 04:25:39;;;;;;;7.55;2.95;;;6.20;87.10;;;;;;10856874;32;20058;-74
2022/12/18 04:31:41;;;;;;;4.30;2.45;;;6.20;87.10;;;;;;10870412;32;20311;-74
2022/12/18 04:37:44;;;;;;;3.28;2.10;;;6.10;87.00;;;;;;10870168;32;20050;-74
2022/12/18 04:43:46;;;;;;;5.35;3.05;;;6.10;87.10;;;;;;10844060;32;20032;-74
2022/12/18 04:49:48;;;;;;;3.97;1.83;;;6.10;87.00;;;;;;10869656;32;20045;-74
2022/12/18 04:55:50;;;;;;;3.70;2.50;;;6.00;86.90;;;;;;10869537;32;20078;-74
2022/12/18 05:01:52;;;;;;;5.25;3.58;;;5.90;86.90;;;;;;10856079;32;20047;-74
2022/12/18 05:07:55;;;;;;;4.47;2.67;;;5.90;86.90;;;;;;10869232;32;20027;-74
2022/12/18 05:13:57;;;;;;;4.20;2.37;;;5.90;86.80;;;;;;10868970;32;20401;-74
2022/12/18 05:19:59;;;;;;;5.75;2.78;;;5.90;86.80;;;;;;10855061;32;20410;-74
2022/12/18 05:26:03;;;;;;;4.85;2.70;;;5.80;86.80;;;;;;10868389;32;20031;-74
2022/12/18 05:32:06;;;;;;;4.20;2.42;;;5.80;86.80;;;;;;10854078;32;20043;-74
2022/12/18 05:38:08;;;;;;;6.40;4.75;;;5.90;86.90;;;;;;10854659;32;20031;-74
2022/12/18 05:44:10;;;;;;;5.20;3.20;;;5.90;87.00;;;;;;10868482;32;20019;-74
2022/12/18 05:50:11;;;;;;;7.55;4.65;;;5.80;86.80;;;;;;10853808;32;20039;-74
2022/12/18 05:56:17;;;;;;;7.10;4.87;;;5.80;86.80;;;;;;10867547;32;20042;-74
2022/12/18 06:02:20;;;;;;;7.07;5.03;;;5.70;86.80;;;;;;10854148;32;20019;-74
2022/12/18 06:08:22;;;;;;;8.32;4.00;;;5.70;86.70;;;;;;10867122;32;20028;-74
2022/12/18 06:14:24;;;;;;;8.60;5.45;;;5.70;86.60;;;;;;10867204;32;20020;-74
2022/12/18 06:20:26;;;;;;;9.10;5.95;;;5.70;86.60;;;;;;10866897;32;20366;-74
2022/12/18 06:26:28;;;;;;;10.82;7.35;;;5.70;86.50;;;;;;10866761;32;20016;-74
2022/12/18 06:32:30;;;;;;;9.80;6.05;;;5.70;86.50;;;;;;10853063;32;20401;-74
2022/12/18 06:38:35;;;;;;;9.93;6.15;;;5.60;86.40;;;;;;10849451;32;20030;-74
2022/12/18 06:44:37;;;;;;;8.77;6.05;;;5.70;86.50;;;;;;10873060;32;20020;-74
2022/12/18 06:50:42;;;;;;;10.50;5.82;;;5.70;86.50;;;;;;10873945;32;20011;-74
2022/12/18 06:56:47;;;;;;;7.55;4.18;;;5.70;86.60;;;;;;10860408;32;20036;-73
2022/12/18 07:02:49;;;;;;;6.65;4.28;;;5.60;86.60;;;;;;10860243;32;20054;-73
2022/12/18 07:08:53;;;;;;;5.12;3.28;;;5.50;86.60;;;;;;10859663;32;20083;-73
2022/12/18 07:14:55;;;;;;;6.37;4.00;;;5.50;86.60;;;;;;10873092;32;20042;-73
2022/12/18 07:20:57;;;;;;;5.95;3.83;;;5.50;86.50;;;;;;10872905;32;20406;-73
2022/12/18 07:26:58;;;;;;;7.40;4.07;;;5.40;86.50;;;;;;10872845;32;20436;-73
2022/12/18 07:33:01;;;;;;;5.62;4.05;;;5.40;86.60;;;;;;10872700;32;20059;-74
2022/12/18 07:39:03;;;;;;;3.95;3.08;;;5.40;86.80;;;;;;10868248;32;20038;-73
2022/12/18 07:45:05;;;;;;;8.50;4.72;;;5.40;86.80;;;;;;10858743;32;20058;-73
2022/12/18 07:51:07;;;;;;;5.75;4.30;;;5.50;86.70;;;;;;10871642;32;20020;-73
2022/12/18 07:57:10;;;;;;;5.25;3.25;;;5.60;86.70;;;;;;10871472;32;20042;-73
2022/12/18 08:03:15;;;;;;;7.10;3.50;;;5.60;86.70;;;;;;10871575;32;20038;-73
2022/12/18 08:09:17;;;;;;;6.60;4.75;;;5.70;86.90;;;;;;10857763;32;20377;-73
2022/12/18 08:15:18;;;;;;;7.62;5.35;;;5.70;87.00;;;;;;10870266;32;20028;-73
2022/12/18 08:21:27;;;;;;;7.62;4.43;;;5.60;87.00;;;;;;10862190;27;20403;-73
2022/12/18 08:27:29;;;;;;;5.62;3.30;;;5.70;87.10;;;;;;10870540;32;20027;-73
2022/12/18 08:33:37;;;;;;;4.95;3.28;;;5.70;87.20;;;;;;10867749;32;20097;-73
2022/12/18 08:39:39;;;;;;;8.60;5.15;;;5.80;87.30;;;;;;10870040;32;20447;-73
2022/12/18 08:45:41;;;;;;;9.75;4.62;;;5.80;87.10;;;;;;10869969;32;20322;-72
2022/12/18 08:51:43;;;;;;;7.20;4.62;;;5.90;87.20;;;;;;10856559;32;20019;-73
2022/12/18 08:57:49;;;;;;;8.02;4.95;;;5.80;87.00;;;;;;10865529;32;20034;-73
2022/12/18 09:03:51;;;;;;;8.13;4.53;;;5.90;87.30;;;;;;10868492;32;20341;-73
2022/12/18 09:09:53;;;;;;;7.78;4.72;;;6.00;87.20;;;;;;10865762;32;20023;-73
2022/12/18 09:15:55;;;;;;;6.18;4.00;;;6.00;87.20;;;;;;10855705;32;20046;-73
2022/12/18 09:21:57;;;;;;;8.25;4.30;;;6.10;87.40;;;;;;10867666;32;20304;-75
2022/12/18 09:28:00;;;;;;;6.18;3.75;;;6.20;87.50;;;;;;10868374;32;20329;-75
2022/12/18 09:34:05;;;;;;;7.45;4.30;;;6.20;87.40;;;;;;10854788;32;20066;-75
2022/12/18 09:40:19;;;;;;;9.20;6.07;;;6.20;87.30;;;;;;10867974;32;20394;-76
2022/12/18 09:46:36;;;;;;;7.37;5.07;;;6.30;87.30;;;;;;10863957;32;20078;-75
2022/12/18 09:52:45;;;;;;;9.38;4.95;;;6.30;87.40;;;;;;10854417;32;20023;-76
2022/12/18 09:58:55;;;;;;;5.33;3.03;;;6.40;87.50;;;;;;10850471;32;20043;-76
2022/12/18 10:05:20;;;;;;;7.03;4.60;;;6.50;87.50;;;;;;10830215;32;20039;-76
2022/12/18 10:11:49;;;;;;;11.07;6.90;;;6.60;87.60;;;;;;10829356;32;20268;-76
2022/12/18 10:18:06;;;;;;;11.63;4.40;;;6.70;87.30;;;;;;10828077;32;20429;-76
2022/12/18 10:24:17;;;;;;;9.77;5.62;;;6.70;87.00;;;;;;10830024;32;20016;-76
2022/12/18 10:30:22;;;;;;;8.43;5.15;;;6.80;86.90;;;;;;10828120;32;20040;-75
2022/12/18 10:36:25;;;;;;;7.18;4.28;;;6.90;86.90;;;;;;10829593;33;20047;-76
2022/12/18 10:42:27;;;;;;;11.18;9.25;;;7.00;87.00;;;;;;10829598;33;20437;-77
2022/12/18 10:48:30;;;;;;;9.07;5.57;;;7.20;86.90;;;;;;10829347;33;20059;-75
2022/12/18 10:54:33;;;;;;;10.80;7.35;;;7.20;86.90;;;;;;10856259;32;20077;-77
2022/12/18 11:00:35;;;;;;;9.25;6.35;;;7.40;86.70;;;;;;10865638;32;20023;-75
2022/12/18 11:06:52;;;;;;;13.20;7.57;;;7.50;86.00;;;;;;10866245;32;20019;-76
2022/12/18 11:12:55;;;;;;;11.38;7.45;;;7.70;85.90;;;;;;10852348;32;20031;-77
2022/12/18 11:19:30;;;;;;;10.15;6.50;;;7.70;85.00;;;;;;10865853;32;20023;-76
2022/12/18 11:25:33;;;;;;;15.88;10.05;;;7.90;84.60;;;;;;10711831;33;20068;-76
2022/12/18 11:31:35;;;;;;;13.10;7.85;;;8.00;84.20;;;;;;10720590;33;20144;-75
2022/12/18 11:37:41;;;;;;;15.60;10.80;;;8.20;83.50;;;;;;10709958;33;20049;-77
2022/12/18 11:43:54;;;;;;;18.62;11.68;;;8.20;82.50;;;;;;10722282;33;20055;-75
2022/12/18 11:50:00;;;;;;;17.90;10.63;;;8.30;81.70;;;;;;10722031;33;20033;-75
2022/12/18 11:56:17;;;;;;;11.27;7.62;;;8.30;81.20;;;;;;10721249;33;20061;-75
2022/12/18 12:02:46;;;;;;;11.85;7.37;;;8.30;80.90;;;;;;10796581;32;20040;-75
2022/12/18 12:09:11;;;;;;;10.18;6.57;;;8.40;80.90;;;;;;10833916;32;20020;-73
2022/12/18 12:15:32;;;;;;;10.82;6.43;;;8.40;80.80;;;;;;10833873;32;20020;-73
2022/12/18 12:21:43;;;;;;;13.75;7.70;;;8.40;81.20;;;;;;10831441;32;20050;-73
2022/12/18 12:28:10;;;;;;;9.77;5.75;;;8.40;81.10;;;;;;10833568;32;20024;-73
2022/12/18 12:34:18;;;;;;;12.50;7.45;;;8.40;81.20;;;;;;10833390;32;20074;-73
2022/12/18 12:40:25;;;;;;;10.15;6.55;;;8.50;80.90;;;;;;10832987;32;20032;-73
2022/12/18 12:46:31;;;;;;;12.18;7.55;;;8.60;81.40;;;;;;10832780;32;20407;-73
2022/12/18 12:52:42;;;;;;;9.75;5.60;;;8.50;81.00;;;;;;10840302;32;20028;-73
2022/12/18 12:59:10;;;;;;;9.13;6.10;;;8.50;81.20;;;;;;10843117;32;20036;-75
2022/12/18 13:05:30;;;;;;;6.65;4.57;;;8.60;80.80;;;;;;10833066;32;20078;-75
2022/12/18 13:18:11;;;;;;;10.68;6.35;;;8.70;80.60;;;;;;10831834;32;20028;-73
2022/12/18 13:24:21;;;;;;;11.27;7.18;;;8.80;80.40;;;;;;10830751;32;20051;-73
2022/12/18 13:30:45;;;;;;;9.63;5.53;;;8.90;80.00;;;;;;10830865;32;20028;-73
2022/12/18 13:36:48;;;;;;;11.90;6.57;;;9.10;79.50;;;;;;10790161;33;20032;-73
2022/12/18 13:49:14;;;;;;;36.78;23.38;;;9.40;78.70;;;;;;10789067;33;20070;-73
2022/12/18 13:55:19;;;;;;;24.77;14.75;;;9.40;78.40;;;;;;10789686;33;20036;-73
2022/12/18 14:01:22;;;;;;;14.45;7.82;;;9.30;78.70;;;;;;10788544;33;20024;-73
2022/12/18 14:07:27;;;;;;;14.77;7.90;;;9.30;78.90;;;;;;10789482;33;20044;-73
2022/12/18 14:13:41;;;;;;;11.40;7.20;;;9.20;79.20;;;;;;10820061;32;20020;-73
2022/12/18 14:19:48;;;;;;;12.37;6.55;;;9.50;78.70;;;;;;10829765;32;20366;-73
2022/12/18 14:25:50;;;;;;;9.20;5.68;;;9.80;78.00;;;;;;10816159;32;20036;-73
2022/12/18 14:32:12;;;;;;;8.68;5.50;;;10.40;77.60;;;;;;10840379;32;20422;-73
2022/12/18 14:38:33;;;;;;;9.65;5.75;;;10.70;77.30;;;;;;10829277;33;20015;-74
2022/12/18 14:44:36;;;;;;;7.65;4.47;;;10.70;77.80;;;;;;10835704;32;20031;-73
2022/12/18 14:50:38;;;;;;;7.57;4.28;;;10.20;78.70;;;;;;10829365;33;20425;-74
2022/12/18 14:56:49;;;;;;;6.05;4.18;;;9.60;79.90;;;;;;10829314;33;20012;-73
2022/12/18 15:02:56;;;;;;;6.47;3.30;;;9.20;80.80;;;;;;10831990;32;20452;-73
2022/12/18 15:09:00;;;;;;;6.70;3.65;;;8.80;81.40;;;;;;10851622;32;20066;-73
2022/12/18 15:15:05;;;;;;;5.93;3.55;;;8.60;81.80;;;;;;10873263;32;20043;-73
2022/12/18 15:21:16;;;;;;;6.87;2.75;;;8.30;82.20;;;;;;10872803;32;20032;-73
2022/12/18 15:27:47;;;;;;;4.32;2.53;;;8.20;82.50;;;;;;10872610;32;20038;-73
2022/12/18 15:33:52;;;;;;;4.97;1.92;;;8.00;82.80;;;;;;10722606;33;20055;-73
2022/12/18 15:39:54;;;;;;;3.37;2.42;;;7.80;83.10;;;;;;10708927;33;20396;-73
2022/12/18 15:45:56;;;;;;;3.95;2.22;;;7.70;83.30;;;;;;10721115;33;20029;-73
2022/12/18 15:52:02;;;;;;;3.92;2.00;;;7.60;83.40;;;;;;10716757;33;20067;-73
2022/12/18 15:58:05;;;;;;;4.00;2.22;;;7.40;83.70;;;;;;10721709;33;20052;-73
2022/12/18 16:04:09;;;;;;;4.93;2.17;;;7.30;83.80;;;;;;10721400;33;20029;-73
2022/12/18 16:10:11;;;;;;;5.68;2.90;;;7.30;83.90;;;;;;10840462;32;20028;-74
2022/12/18 16:16:13;;;;;;;5.82;3.25;;;7.20;84.00;;;;;;10870394;32;20073;-73
2022/12/18 16:22:21;;;;;;;7.15;4.15;;;7.10;84.10;;;;;;10871603;27;20043;-73
2022/12/18 16:28:23;;;;;;;6.97;4.00;;;7.00;84.20;;;;;;10870661;32;20366;-73
2022/12/18 16:34:27;;;;;;;6.68;3.58;;;7.00;84.20;;;;;;10870434;32;20043;-73
2022/12/18 16:40:32;;;;;;;10.43;5.37;;;6.90;84.30;;;;;;10856788;32;20043;-73
2022/12/18 16:46:34;;;;;;;9.18;5.85;;;6.80;84.30;;;;;;10869918;32;20015;-73
2022/12/18 16:52:37;;;;;;;9.85;6.78;;;6.80;84.40;;;;;;10865772;32;20024;-73
2022/12/18 16:58:40;;;;;;;8.98;5.35;;;6.70;84.40;;;;;;10856439;32;20035;-73
2022/12/18 17:04:42;;;;;;;7.35;4.87;;;6.60;84.60;;;;;;10869207;32;20398;-73
2022/12/18 17:10:44;;;;;;;9.27;5.80;;;6.50;84.60;;;;;;10867985;32;20019;-73
2022/12/18 17:16:46;;;;;;;10.00;5.20;;;6.50;84.70;;;;;;10865092;32;20023;-73
2022/12/18 17:22:48;;;;;;;9.77;5.97;;;6.50;84.60;;;;;;10868698;32;20016;-73
2022/12/18 17:28:50;;;;;;;9.63;6.30;;;6.40;84.60;;;;;;10867845;32;20024;-73
2022/12/18 17:34:53;;;;;;;10.48;6.93;;;6.30;84.70;;;;;;10864282;32;20051;-73
2022/12/18 17:41:00;;;;;;;11.48;6.32;;;6.30;84.70;;;;;;10868181;32;20095;-73
2022/12/18 17:47:02;;;;;;;13.38;8.82;;;6.20;84.70;;;;;;10867914;32;20020;-73
2022/12/18 17:53:04;;;;;;;12.05;8.32;;;6.20;84.70;;;;;;10867548;32;20345;-73
2022/12/18 17:59:06;;;;;;;12.23;8.32;;;6.20;84.70;;;;;;10863579;32;20034;-75
2022/12/18 18:05:10;;;;;;;11.75;8.57;;;6.20;84.70;;;;;;10867357;32;20326;-75
2022/12/18 18:17:38;;;;;;;14.73;9.63;;;6.10;84.70;;;;;;10867268;32;20390;-75
2022/12/18 18:23:40;;;;;;;12.73;8.68;;;6.10;84.70;;;;;;10886424;32;20337;-75
2022/12/18 18:29:42;;;;;;;17.42;10.60;;;6.00;84.70;;;;;;10904054;32;20041;-75
2022/12/18 18:35:45;;;;;;;18.05;14.23;;;5.90;84.70;;;;;;10891336;32;20023;-75
2022/12/18 18:41:49;;;;;;;20.25;13.52;;;5.90;84.80;;;;;;10916357;32;20046;-73
2022/12/18 18:47:51;;;;;;;20.30;13.32;;;5.90;84.90;;;;;;10897048;32;20015;-73
2022/12/18 18:53:53;;;;;;;26.85;18.15;;;5.80;84.80;;;;;;10878936;32;20077;-73
2022/12/18 18:59:55;;;;;;;39.85;22.75;;;5.70;84.80;;;;;;10865182;32;20027;-73
2022/12/18 19:05:59;;;;;;;35.35;23.52;;;5.60;84.90;;;;;;10874863;32;20042;-73
2022/12/18 19:18:23;;;;;;;38.25;26.67;;;5.60;84.80;;;;;;10878462;32;20078;-73
2022/12/18 19:24:36;;;;;;;32.22;24.90;;;5.60;84.70;;;;;;10878360;32;20437;-74
2022/12/18 19:30:38;;;;;;;34.45;27.62;;;5.60;85.00;;;;;;10864352;32;20030;-73
2022/12/18 19:36:41;;;;;;;23.48;17.40;;;5.60;85.30;;;;;;10864754;32;20012;-73
2022/12/18 19:42:43;;;;;;;24.52;16.48;;;5.50;85.20;;;;;;10877868;32;20074;-73
2022/12/18 19:49:05;;;;;;;18.17;12.80;;;5.50;85.50;;;;;;10874467;32;20350;-73
2022/12/18 19:55:07;;;;;;;16.35;12.10;;;5.50;85.70;;;;;;10871920;32;20023;-73
2022/12/18 20:01:11;;;;;;;18.58;14.68;;;5.40;85.40;;;;;;10858585;32;20016;-73
2022/12/18 20:07:27;;;;;;;14.60;10.45;;;5.40;85.70;;;;;;10871524;32;20051;-73
2022/12/18 20:13:29;;;;;;;17.50;12.40;;;5.30;85.40;;;;;;10871232;32;20015;-73
2022/12/18 20:19:53;;;;;;;21.83;16.17;;;5.20;85.30;;;;;;10868555;32;20031;-73
2022/12/18 20:26:05;;;;;;;25.75;18.27;;;5.20;85.30;;;;;;10870712;32;20016;-74
2022/12/18 20:32:08;;;;;;;26.70;14.30;;;5.20;85.40;;;;;;10869213;32;20058;-73
2022/12/18 20:38:19;;;;;;;18.75;13.15;;;5.20;85.40;;;;;;10867029;32;20021;-73
2022/12/18 20:44:22;;;;;;;22.90;15.85;;;5.20;85.40;;;;;;10870182;32;20019;-73
2022/12/18 20:50:24;;;;;;;19.65;15.90;;;5.10;85.30;;;;;;10869884;32;20050;-73
2022/12/18 20:56:29;;;;;;;18.98;14.82;;;5.10;85.30;;;;;;10869694;32;20016;-73
2022/12/18 21:02:31;;;;;;;20.52;15.65;;;5.10;85.60;;;;;;10855717;32;20296;-73
2022/12/18 21:08:33;;;;;;;19.85;15.80;;;5.00;85.50;;;;;;10869149;32;20055;-73
2022/12/18 21:14:35;;;;;;;19.37;14.98;;;5.00;85.40;;;;;;10868628;32;20020;-73
2022/12/18 21:20:37;;;;;;;26.00;16.95;;;4.90;85.30;;;;;;10867886;32;20046;-73
2022/12/18 21:26:41;;;;;;;30.55;20.90;;;4.90;85.40;;;;;;10855355;32;20034;-73
2022/12/18 21:32:44;;;;;;;24.30;17.75;;;4.90;85.60;;;;;;10868428;32;20063;-73
2022/12/18 21:38:46;;;;;;;21.75;17.42;;;4.90;85.60;;;;;;10868241;32;20034;-73
2022/12/18 21:44:49;;;;;;;21.30;18.17;;;4.90;85.60;;;;;;10854836;32;20322;-73
2022/12/18 21:50:51;;;;;;;22.65;17.60;;;4.90;85.30;;;;;;10867766;32;20435;-73
2022/12/18 21:56:54;;;;;;;26.83;22.00;;;4.80;85.30;;;;;;10863772;32;20020;-73
2022/12/18 22:02:56;;;;;;;29.92;25.67;;;4.80;85.60;;;;;;10865554;32;20042;-73
2022/12/18 22:08:58;;;;;;;24.42;18.65;;;4.80;85.70;;;;;;10867226;32;20326;-73
2022/12/18 22:15:03;;;;;;;21.37;17.90;;;4.80;85.70;;;;;;10866730;32;20011;-73
2022/12/18 22:21:05;;;;;;;28.62;22.87;;;4.70;86.00;;;;;;10867033;32;20027;-73
2022/12/18 22:27:09;;;;;;;32.00;22.87;;;4.70;86.20;;;;;;10866950;32;20016;-73
2022/12/18 22:33:11;;;;;;;23.92;20.42;;;4.70;86.30;;;;;;10866584;32;20020;-73
2022/12/18 22:39:22;;;;;;;29.50;25.70;;;4.70;86.30;;;;;;10853378;32;20389;-73
2022/12/18 22:45:25;;;;;;;27.85;23.05;;;4.70;86.20;;;;;;10866581;32;20425;-73
2022/12/18 22:51:27;;;;;;;26.85;20.80;;;4.60;86.10;;;;;;10866438;32;20042;-72
2022/12/18 22:57:29;;;;;;;23.42;16.87;;;4.50;86.20;;;;;;10853109;32;20201;-74
2022/12/18 23:03:33;;;;;;;25.80;20.12;;;4.50;86.00;;;;;;10866344;32;20383;-74
2022/12/18 23:09:35;;;;;;;28.12;19.08;;;4.50;86.00;;;;;;10852711;32;20028;-74
2022/12/18 23:15:41;;;;;;;23.30;18.50;;;4.50;85.90;;;;;;10865934;32;20038;-74
2022/12/18 23:21:43;;;;;;;22.77;18.65;;;4.50;86.00;;;;;;10865826;32;20078;-74
2022/12/18 23:27:45;;;;;;;21.00;17.10;;;4.50;86.00;;;;;;10858784;32;20034;-74
2022/12/18 23:33:47;;;;;;;19.73;15.18;;;4.40;85.90;;;;;;10872646;32;20027;-74
2022/12/18 23:39:49;;;;;;;20.58;16.23;;;4.40;86.10;;;;;;10872551;32;20020;-74
2022/12/18 23:45:52;;;;;;;19.55;14.90;;;4.40;86.30;;;;;;10872149;32;20043;-74
2022/12/18 23:51:54;;;;;;;21.40;16.37;;;4.30;86.40;;;;;;10872032;32;20043;-74
2022/12/18 23:58:49;;;;;;;19.95;15.38;;;4.30;86.40;;;;;;10858212;32;20050;-74
